Aldsworth, United Kingdom
Current Conditions -  °F | °C
As of 8:50 PM on Thursday 18 Dec 2014 (Local Time) from EGVN Reporting Station
Drizzle Drizzle  
Wind Chill: 54°   Ceiling: 800
Heat Index: 54°   Visibility: 6mi
Dew Point: 52°   Wind: 12mph
Humidity: 94%   Direction: 230°SW
Pressure: 29.8"   Gusts: 24mph
Location:  51.93°N, 1.72°W
Report Text: EGVN 182050Z 23010G21KT 9999 -DZ FEW006 BKN008 OVC014 12/11 Q1009 GRN NOSIG
Loading
Personal Weather Stations






























Interactive Weather Map New forecast layout! Learn more

10-Day Weather Forecast

Advertisements
Track Severe Weather on mobile